createdAt,value
2022-10-28T00:03:07.933Z,101065.19
2022-10-28T00:08:09.843Z,101072.19
2022-10-28T00:13:11.368Z,101075.75
2022-10-28T00:18:15.651Z,101068.44
2022-10-28T00:23:17.102Z,101065.41
2022-10-28T00:28:18.533Z,101066.44
2022-10-28T00:33:19.974Z,101071.31
2022-10-28T00:38:21.445Z,101066.72
2022-10-28T00:43:43.356Z,101069.03
2022-10-28T00:48:50.735Z,101071.47
2022-10-28T00:53:53.654Z,101071.69
2022-10-28T00:58:59.570Z,101064.72
2022-10-28T04:36:17.279Z,100948.47
2022-10-28T04:41:18.831Z,100938.00
2022-10-28T04:46:20.356Z,100960.69
2022-10-28T04:51:21.843Z,100963.38
2022-10-28T04:56:23.306Z,100960.91
2022-10-28T05:01:24.933Z,100975.41
2022-10-28T05:06:26.596Z,100973.75
2022-10-28T05:11:28.216Z,100972.09
2022-10-28T05:16:29.673Z,100959.63
2022-10-28T05:21:31.196Z,100977.78
2022-10-28T05:26:32.660Z,100972.81
2022-10-28T05:31:34.718Z,100951.88
2022-10-28T05:36:36.347Z,100960.78
2022-10-28T05:41:38.869Z,100966.09
2022-10-28T05:46:40.472Z,100973.19
2022-10-28T05:51:41.942Z,100973.38
2022-10-28T05:56:43.430Z,100962.25
2022-10-28T06:01:45.009Z,100960.38
2022-10-28T06:06:46.597Z,100945.72
2022-10-28T06:11:46.740Z,100958.47
2022-10-28T06:16:48.240Z,100963.00
2022-10-28T06:21:49.695Z,100974.69
2022-10-28T06:26:51.196Z,100979.94
2022-10-28T06:31:52.682Z,100974.38
2022-10-28T06:36:54.100Z,100975.31
2022-10-28T06:41:55.591Z,100980.31
2022-10-28T06:46:58.607Z,100992.53
2022-10-28T06:52:00.096Z,100997.09
2022-10-28T06:57:01.913Z,101005.25
2022-10-28T07:02:03.917Z,101011.78
2022-10-28T07:07:05.623Z,101019.97
2022-10-28T07:12:07.757Z,101021.28
2022-10-28T07:17:09.247Z,101023.47
2022-10-28T07:22:10.728Z,101023.47
2022-10-28T07:27:12.953Z,101018.22
2022-10-28T07:32:15.394Z,101012.97
2022-10-28T07:37:16.914Z,101016.22
2022-10-28T07:42:18.440Z,101010.63
2022-10-28T07:47:21.617Z,101022.94
2022-10-28T07:52:23.372Z,101028.69
2022-10-28T07:57:24.999Z,101022.53
2022-10-28T08:02:26.813Z,101023.91
2022-10-28T08:07:28.946Z,101032.75
2022-10-28T08:12:30.805Z,101042.13
2022-10-28T08:17:32.265Z,101031.91
2022-10-28T08:22:33.740Z,101029.06
2022-10-28T08:27:35.277Z,101022.28
2022-10-28T08:32:36.744Z,101014.72
2022-10-28T08:37:38.200Z,101012.94
2022-10-28T08:42:56.444Z,101021.88
2022-10-28T08:47:58.343Z,101030.72
2022-10-28T08:53:10.468Z,101023.31
2022-10-28T08:58:17.980Z,101022.38
2022-10-28T09:03:23.115Z,101011.09
2022-10-28T09:08:29.696Z,100997.78
2022-10-28T09:13:52.876Z,100996.34
2022-10-28T09:18:57.053Z,100989.50
2022-10-28T09:24:05.982Z,100989.44
2022-10-28T09:29:10.257Z,101002.63
2022-10-28T09:34:24.037Z,101010.50
2022-10-28T09:39:34.255Z,101016.13
2022-10-28T09:44:43.446Z,101034.91
2022-10-28T09:49:47.465Z,101029.00
2022-10-28T09:54:52.233Z,101013.91
2022-10-28T09:59:54.037Z,101022.44
2022-10-28T10:04:57.965Z,101004.38
2022-10-28T10:15:28.852Z,100999.22
2022-10-28T10:20:47.483Z,100995.81
2022-10-28T10:25:55.390Z,101005.34
2022-10-28T10:30:59.824Z,101001.53
2022-10-28T10:36:10.577Z,101002.25
2022-10-28T10:41:12.084Z,100996.94
2022-10-28T10:46:22.907Z,100988.78
2022-10-28T10:51:27.379Z,100991.31
2022-10-28T10:56:32.933Z,100974.16
2022-10-28T11:01:39.129Z,100976.59
2022-10-28T11:06:43.654Z,100971.56
2022-10-28T11:11:45.324Z,100962.63
2022-10-28T11:16:57.837Z,100954.13
2022-10-28T11:22:47.913Z,100956.19
2022-10-28T11:28:19.571Z,100944.22
2022-10-28T11:33:30.483Z,100939.13
2022-10-28T11:38:32.397Z,100940.09
2022-10-28T11:43:55.019Z,100952.56
2022-10-28T11:49:25.586Z,100949.31
2022-10-28T11:54:54.048Z,100942.38
2022-10-28T12:00:14.888Z,100947.53
2022-10-28T12:05:33.040Z,100942.28
2022-10-28T12:10:34.491Z,100937.19
2022-10-28T12:15:58.183Z,100929.41
2022-10-28T12:21:05.923Z,100929.75
2022-10-28T12:26:11.525Z,100919.28
2022-10-28T12:31:25.443Z,100910.91
2022-10-28T12:36:29.792Z,100911.75
2022-10-28T12:47:06.852Z,100882.56
2022-10-28T12:52:19.870Z,100885.63
2022-10-28T12:57:24.961Z,100887.28
2022-10-28T13:02:39.748Z,100889.44
2022-10-28T13:07:58.640Z,100899.84
2022-10-28T13:13:22.017Z,100891.19
2022-10-28T13:18:40.853Z,100881.47
2022-10-28T13:24:21.092Z,100890.38
2022-10-28T13:29:26.981Z,100890.38
2022-10-28T13:34:36.013Z,100893.81
2022-10-28T13:39:37.442Z,100903.16
2022-10-28T13:44:55.707Z,100906.69
2022-10-28T13:50:06.641Z,100903.81
2022-10-28T13:55:13.981Z,100894.38
2022-10-28T14:00:18.519Z,100890.00
2022-10-28T14:05:25.634Z,100892.38
2022-10-28T14:10:32.708Z,100884.69
2022-10-28T14:15:37.192Z,100878.53
2022-10-28T14:20:43.023Z,100875.81
2022-10-28T14:25:44.587Z,100878.91
2022-10-28T14:31:09.077Z,100877.38
2022-10-28T14:36:19.615Z,100875.59
2022-10-28T14:41:47.731Z,100877.59
2022-10-28T14:47:26.784Z,100873.94
2022-10-28T14:52:31.323Z,100887.78
2022-10-28T14:57:34.572Z,100871.94
2022-10-28T15:02:38.019Z,100869.41
2022-10-28T15:07:41.165Z,100871.16
2022-10-28T15:12:45.623Z,100877.88
2022-10-28T15:17:47.125Z,100883.25
2022-10-28T15:22:48.707Z,100877.16
2022-10-28T15:27:54.108Z,100871.41
2022-10-28T15:33:20.177Z,100879.75
2022-10-28T15:38:30.978Z,100875.66
2022-10-28T15:43:32.586Z,100881.56
2022-10-28T15:48:34.132Z,100873.91
2022-10-28T15:53:40.563Z,100884.53
2022-10-28T15:58:44.102Z,100893.16
2022-10-28T16:03:47.456Z,100896.34
2022-10-28T16:08:59.673Z,100891.69
2022-10-28T16:14:14.920Z,100891.72
2022-10-28T16:19:41.233Z,100904.00
2022-10-28T16:24:42.738Z,100893.47
2022-10-28T16:29:44.559Z,100896.19
2022-10-28T16:34:46.105Z,100890.66
2022-10-28T16:39:48.421Z,100889.44
2022-10-28T16:44:50.274Z,100895.75
2022-10-28T16:49:54.513Z,100903.38
2022-10-28T16:54:59.767Z,100908.41
2022-10-28T17:00:01.846Z,100915.13
2022-10-28T17:05:07.430Z,100929.69
2022-10-28T17:10:09.935Z,100932.78
2022-10-28T17:15:11.421Z,100943.44
2022-10-28T17:20:12.923Z,100943.69
2022-10-28T17:25:14.720Z,100939.72
2022-10-28T17:30:17.585Z,100944.56
2022-10-28T17:35:20.943Z,100949.03
2022-10-28T17:40:22.502Z,100954.75
2022-10-28T17:45:24.017Z,100964.63
2022-10-28T17:50:25.528Z,100969.28
2022-10-28T17:55:27.032Z,100980.38
2022-10-28T18:00:28.489Z,100975.13
2022-10-28T18:05:29.956Z,100979.50
2022-10-28T18:10:31.431Z,100982.09
2022-10-28T18:15:36.763Z,100979.41
2022-10-28T18:20:38.358Z,100974.78
2022-10-28T18:25:39.879Z,100978.34
2022-10-28T18:30:41.346Z,100970.91
2022-10-28T18:35:42.834Z,100970.44
2022-10-28T18:40:47.214Z,100966.34
2022-10-28T18:45:48.787Z,100972.38
2022-10-28T18:51:01.873Z,100967.41
2022-10-28T18:56:06.193Z,100969.25
2022-10-28T19:01:20.157Z,100972.75
2022-10-28T19:06:22.553Z,100987.34
2022-10-28T19:11:29.887Z,100984.09
2022-10-28T19:16:33.537Z,100987.75
2022-10-28T19:21:38.350Z,100989.13
2022-10-28T19:26:39.844Z,100985.94
2022-10-28T19:31:41.939Z,100987.75
2022-10-28T19:36:43.533Z,100986.97
2022-10-28T19:41:45.142Z,100993.00
2022-10-28T19:46:46.616Z,100997.47
2022-10-28T19:51:48.052Z,100988.16
2022-10-28T19:56:50.394Z,100990.84
2022-10-28T20:01:52.003Z,100993.53
2022-10-28T20:06:53.585Z,100992.88
2022-10-28T20:11:55.228Z,100999.94
2022-10-28T20:16:56.704Z,101001.88
2022-10-28T20:21:58.312Z,101019.28
2022-10-28T20:26:59.755Z,101023.03
2022-10-28T20:32:01.895Z,101032.91
2022-10-28T20:37:03.484Z,101035.53
2022-10-28T20:42:04.997Z,101041.63
2022-10-28T20:47:06.557Z,101037.81
2022-10-28T20:52:08.091Z,101038.88
2022-10-28T20:57:09.533Z,101038.09
2022-10-28T21:02:11.161Z,101026.19
2022-10-28T21:07:12.769Z,101024.38
2022-10-28T21:12:14.214Z,101022.66
2022-10-28T21:17:15.683Z,101033.72
2022-10-28T21:22:18.522Z,101026.19
2022-10-28T21:27:19.992Z,101022.97
2022-10-28T21:32:21.459Z,101031.28
2022-10-28T21:37:22.960Z,101050.63
2022-10-28T21:42:24.483Z,101065.34
2022-10-28T21:47:27.401Z,101071.41
2022-10-28T21:52:28.856Z,101084.47
2022-10-28T21:57:30.755Z,101090.69
2022-10-28T22:02:32.375Z,101092.53
2022-10-28T22:07:34.020Z,101098.59
2022-10-28T22:12:35.470Z,101109.00
2022-10-28T22:17:37.260Z,101112.59
2022-10-28T22:22:38.738Z,101123.94
2022-10-28T22:27:40.285Z,101119.19
2022-10-28T22:32:41.750Z,101116.78
2022-10-28T22:37:43.215Z,101106.63
2022-10-28T22:42:44.662Z,101104.25
2022-10-28T22:47:46.125Z,101107.75
2022-10-28T22:52:47.570Z,101100.09
2022-10-28T22:57:49.005Z,101100.16
2022-10-28T23:02:50.521Z,101094.31
2022-10-28T23:07:55.457Z,101097.84
2022-10-28T23:12:58.492Z,101096.19
2022-10-28T23:18:00.022Z,101100.59
2022-10-28T23:23:01.771Z,101093.13
2022-10-28T23:28:06.809Z,101099.41
2022-10-28T23:33:08.277Z,101089.47
2022-10-28T23:38:11.770Z,101090.38
2022-10-28T23:43:13.194Z,101100.63
2022-10-28T23:48:14.646Z,101094.75
2022-10-28T23:53:16.612Z,101081.38
2022-10-28T23:58:20.161Z,101076.16
